createdAt,value
2018-05-21T00:01:51.073Z,36.40
2018-05-21T00:04:19.648Z,36.40
2018-05-21T00:06:47.928Z,36.40
2018-05-21T00:09:16.323Z,36.50
2018-05-21T00:11:44.575Z,36.60
2018-05-21T00:14:12.881Z,36.40
2018-05-21T00:16:41.136Z,36.50
2018-05-21T00:19:09.667Z,37.00
2018-05-21T00:21:37.996Z,36.50
2018-05-21T00:24:06.385Z,36.40
2018-05-21T00:26:34.637Z,36.30
2018-05-21T00:29:03.015Z,36.30
2018-05-21T00:31:31.305Z,36.10
2018-05-21T00:33:59.680Z,36.00
2018-05-21T00:36:27.941Z,36.40
2018-05-21T00:38:56.219Z,36.10
2018-05-21T00:41:24.516Z,36.20
2018-05-21T00:43:52.836Z,36.20
2018-05-21T00:46:21.181Z,36.30
2018-05-21T00:48:50.978Z,36.80
2018-05-21T00:51:19.259Z,36.50
2018-05-21T00:53:47.575Z,36.30
2018-05-21T00:56:15.795Z,36.40
2018-05-21T00:58:43.992Z,36.50
2018-05-21T01:01:12.563Z,36.30
2018-05-21T01:03:41.016Z,36.10
2018-05-21T01:06:09.317Z,35.90
2018-05-21T01:08:37.664Z,36.10
2018-05-21T01:11:05.861Z,36.20
2018-05-21T01:13:34.136Z,36.30
2018-05-21T01:16:02.442Z,36.20
2018-05-21T01:18:31.519Z,36.70
2018-05-21T01:20:59.790Z,36.20
2018-05-21T01:23:28.082Z,36.20
2018-05-21T01:25:56.449Z,36.20
2018-05-21T01:28:24.714Z,35.20
2018-05-21T01:30:53.002Z,36.10
2018-05-21T01:33:21.336Z,36.00
2018-05-21T01:35:49.864Z,35.80
2018-05-21T01:38:18.211Z,36.20
2018-05-21T01:40:46.396Z,35.80
2018-05-21T01:43:14.667Z,35.90
2018-05-21T01:45:43.046Z,36.10
2018-05-21T01:48:11.326Z,35.80
2018-05-21T01:50:39.700Z,35.80
2018-05-21T01:53:07.995Z,35.90
2018-05-21T01:55:43.532Z,36.60
2018-05-21T01:58:12.826Z,36.40
2018-05-21T02:00:42.955Z,36.30
2018-05-21T02:03:12.070Z,36.10
2018-05-21T02:05:40.777Z,36.30
2018-05-21T02:08:11.571Z,36.70
2018-05-21T02:10:40.256Z,36.40
2018-05-21T02:13:09.353Z,36.10
2018-05-21T02:15:39.078Z,36.70
2018-05-21T02:18:07.784Z,36.10
2018-05-21T02:20:36.531Z,36.30
2018-05-21T02:23:05.483Z,36.30
2018-05-21T02:25:34.418Z,36.20
2018-05-21T02:28:03.282Z,36.00
2018-05-21T02:30:32.937Z,36.10
2018-05-21T02:33:01.186Z,36.00
2018-05-21T02:35:29.564Z,36.20
2018-05-21T02:37:58.557Z,36.30
2018-05-21T02:40:29.157Z,36.20
2018-05-21T02:42:59.976Z,36.20
2018-05-21T02:45:29.330Z,37.10
2018-05-21T02:47:57.597Z,36.20
2018-05-21T02:50:25.875Z,35.90
2018-05-21T02:52:54.129Z,36.00
2018-05-21T02:55:22.427Z,36.00
2018-05-21T02:57:50.691Z,36.00
2018-05-21T03:00:19.066Z,36.10
2018-05-21T03:02:47.448Z,36.00
2018-05-21T03:05:15.648Z,36.40
2018-05-21T03:07:44.019Z,36.00
2018-05-21T03:10:12.485Z,36.10
2018-05-21T03:12:40.866Z,36.20
2018-05-21T03:15:09.165Z,35.80
2018-05-21T03:17:38.162Z,37.00
2018-05-21T03:20:07.266Z,37.20
2018-05-21T03:22:36.227Z,36.50
2018-05-21T03:25:04.500Z,36.20
2018-05-21T03:27:32.768Z,36.00
2018-05-21T03:30:01.048Z,35.90
2018-05-21T03:32:29.326Z,35.80
2018-05-21T03:34:57.595Z,36.00
2018-05-21T03:37:25.982Z,36.00
2018-05-21T03:39:54.234Z,35.90
2018-05-21T03:42:22.509Z,35.80
2018-05-21T03:44:50.796Z,35.90
2018-05-21T03:47:18.980Z,35.90
2018-05-21T03:49:47.206Z,35.90
2018-05-21T03:52:15.552Z,36.00
2018-05-21T03:54:43.918Z,35.80
2018-05-21T03:57:12.298Z,36.40
2018-05-21T03:59:52.483Z,35.90
2018-05-21T04:02:33.216Z,36.40
2018-05-21T04:05:01.483Z,36.20
2018-05-21T04:07:29.868Z,35.90
2018-05-21T04:09:58.242Z,36.00
2018-05-21T04:12:26.628Z,35.80
2018-05-21T04:14:54.901Z,35.80
2018-05-21T04:17:23.274Z,35.90
2018-05-21T04:19:51.561Z,36.00
2018-05-21T04:22:19.929Z,35.90
2018-05-21T04:24:48.313Z,35.90
2018-05-21T04:27:16.576Z,36.00
2018-05-21T04:29:44.858Z,36.00
2018-05-21T04:32:12.735Z,35.80
2018-05-21T04:34:40.665Z,35.70
2018-05-21T04:37:08.633Z,35.70
2018-05-21T04:39:36.499Z,35.70
2018-05-21T04:42:04.466Z,35.40
2018-05-21T04:44:32.332Z,35.90
2018-05-21T04:47:00.301Z,36.00
2018-05-21T04:49:28.166Z,35.90
2018-05-21T04:51:56.135Z,36.00
2018-05-21T04:54:23.935Z,35.90
2018-05-21T04:56:51.871Z,35.90
2018-05-21T04:59:19.668Z,35.60
2018-05-21T05:01:47.537Z,35.60
2018-05-21T05:04:15.467Z,35.70
2018-05-21T05:06:43.333Z,35.60
2018-05-21T05:09:11.199Z,36.00
2018-05-21T05:11:39.065Z,36.00
2018-05-21T05:14:06.869Z,36.00
2018-05-21T05:16:34.736Z,36.10
2018-05-21T05:19:02.664Z,35.70
2018-05-21T05:21:30.468Z,36.00
2018-05-21T05:23:58.396Z,36.20
2018-05-21T05:26:26.262Z,35.90
2018-05-21T05:28:54.128Z,36.00
2018-05-21T05:31:21.995Z,35.70
2018-05-21T05:33:49.864Z,35.70
2018-05-21T05:36:17.832Z,35.90
2018-05-21T05:38:45.634Z,35.80
2018-05-21T05:41:13.563Z,36.00
2018-05-21T05:43:41.427Z,36.10
2018-05-21T05:46:09.297Z,35.90
2018-05-21T05:48:37.159Z,36.10
2018-05-21T05:51:05.028Z,36.00
2018-05-21T05:53:32.809Z,36.40
2018-05-21T05:56:00.701Z,36.10
2018-05-21T05:58:29.341Z,36.80
2018-05-21T06:00:57.207Z,36.40
2018-05-21T06:03:25.011Z,36.10
2018-05-21T06:05:52.938Z,36.30
2018-05-21T06:08:20.743Z,36.20
2018-05-21T06:10:48.672Z,36.20
2018-05-21T06:13:16.462Z,36.00
2018-05-21T06:15:44.404Z,36.30
2018-05-21T06:18:12.271Z,35.80
2018-05-21T06:20:40.137Z,35.80
2018-05-21T06:23:08.003Z,35.90
2018-05-21T06:25:35.869Z,35.40
2018-05-21T06:28:03.739Z,35.90
2018-05-21T06:30:31.602Z,35.80
2018-05-21T06:32:59.469Z,35.40
2018-05-21T06:35:27.333Z,35.70
2018-05-21T06:37:55.306Z,35.70
2018-05-21T06:40:23.171Z,35.60
2018-05-21T06:42:51.074Z,35.40
2018-05-21T06:45:19.019Z,35.90
2018-05-21T06:47:47.695Z,36.60
2018-05-21T06:50:15.658Z,35.50
2018-05-21T06:52:43.524Z,35.70
2018-05-21T06:55:11.389Z,36.20
2018-05-21T06:57:39.255Z,36.20
2018-05-21T07:00:07.037Z,35.90
2018-05-21T07:02:34.988Z,36.10
2018-05-21T07:05:02.770Z,35.70
2018-05-21T07:07:30.552Z,35.70
2018-05-21T07:09:58.420Z,35.40
2018-05-21T07:12:27.720Z,36.60
2018-05-21T07:14:55.548Z,35.80
2018-05-21T07:17:23.414Z,35.80
2018-05-21T07:19:51.284Z,35.70
2018-05-21T07:22:19.248Z,35.70
2018-05-21T07:24:47.114Z,35.60
2018-05-21T07:27:14.980Z,36.00
2018-05-21T07:29:42.885Z,36.00
2018-05-21T07:32:10.753Z,35.70
2018-05-21T07:34:38.680Z,35.90
2018-05-21T07:37:06.489Z,36.40
2018-05-21T07:39:34.414Z,36.00
2018-05-21T07:42:02.280Z,35.70
2018-05-21T07:44:30.248Z,36.10
2018-05-21T07:46:58.115Z,36.10
2018-05-21T07:49:27.107Z,36.10
2018-05-21T07:51:55.895Z,36.00
2018-05-21T07:54:23.864Z,35.70
2018-05-21T07:56:51.730Z,35.90
2018-05-21T07:59:19.637Z,36.10
2018-05-21T08:01:47.567Z,36.50
2018-05-21T08:04:15.535Z,35.50
2018-05-21T08:06:43.399Z,35.50
2018-05-21T08:09:13.709Z,35.80
2018-05-21T08:11:41.599Z,35.70
2018-05-21T08:14:09.558Z,36.30
2018-05-21T08:16:37.363Z,36.40
2018-05-21T08:19:05.291Z,36.60
2018-05-21T08:21:33.157Z,36.80
2018-05-21T08:24:01.024Z,36.80
2018-05-21T08:26:28.856Z,37.00
2018-05-21T08:28:57.575Z,37.20
2018-05-21T08:31:25.440Z,36.60
2018-05-21T08:33:53.307Z,36.90
2018-05-21T08:36:21.174Z,36.10
2018-05-21T08:38:49.039Z,36.20
2018-05-21T08:41:16.904Z,35.90
2018-05-21T08:43:45.192Z,36.00
2018-05-21T08:46:13.389Z,36.10
2018-05-21T08:48:41.548Z,35.90
2018-05-21T08:51:09.745Z,36.40
2018-05-21T08:53:37.771Z,36.20
2018-05-21T08:56:05.637Z,36.10
2018-05-21T08:58:33.512Z,36.60
2018-05-21T09:01:01.373Z,36.50
2018-05-21T09:03:29.237Z,36.40
2018-05-21T09:05:57.103Z,36.50
2018-05-21T09:08:24.967Z,36.50
2018-05-21T09:11:06.453Z,36.50
2018-05-21T09:13:35.244Z,36.90
2018-05-21T09:16:03.211Z,36.60
2018-05-21T09:18:31.075Z,36.60
2018-05-21T09:20:59.049Z,36.80
2018-05-21T09:23:26.914Z,36.80
2018-05-21T09:25:54.887Z,36.60
2018-05-21T09:28:22.686Z,36.70
2018-05-21T09:30:50.611Z,36.70
2018-05-21T09:33:18.417Z,36.60
2018-05-21T09:35:46.343Z,36.90
2018-05-21T09:38:14.210Z,36.90
2018-05-21T09:40:52.233Z,37.10
2018-05-21T09:43:20.183Z,37.40
2018-05-21T09:45:48.151Z,37.00
2018-05-21T09:48:15.988Z,37.20
2018-05-21T09:50:44.642Z,37.60
2018-05-21T09:53:12.568Z,36.90
2018-05-21T09:55:40.381Z,37.20
2018-05-21T09:58:08.301Z,37.30
2018-05-21T10:00:36.274Z,37.20
2018-05-21T10:03:04.136Z,37.40
2018-05-21T10:05:32.449Z,36.90
2018-05-21T10:08:02.281Z,37.30
2018-05-21T10:10:30.807Z,37.20
2018-05-21T10:12:59.940Z,37.50
2018-05-21T10:15:28.281Z,37.50
2018-05-21T10:17:56.764Z,37.60
2018-05-21T10:20:25.242Z,37.60
2018-05-21T10:22:53.210Z,37.60
2018-05-21T10:25:21.179Z,37.70
2018-05-21T10:27:49.044Z,37.90
2018-05-21T10:30:22.833Z,37.90
2018-05-21T10:32:57.373Z,38.00
2018-05-21T10:35:35.102Z,38.10
2018-05-21T10:38:05.819Z,38.10
2018-05-21T10:40:34.385Z,37.90
2018-05-21T10:43:02.968Z,37.70
2018-05-21T10:45:30.937Z,37.80
2018-05-21T10:47:58.749Z,38.00
2018-05-21T10:50:29.016Z,38.30
2018-05-21T10:52:57.342Z,37.90
2018-05-21T10:55:25.371Z,38.20
2018-05-21T10:57:53.854Z,38.10
2018-05-21T11:00:23.293Z,38.10
2018-05-21T11:02:51.966Z,38.30
2018-05-21T11:05:21.328Z,38.30
2018-05-21T11:07:49.349Z,38.10
2018-05-21T11:10:18.442Z,38.50
2018-05-21T11:12:47.112Z,37.80
2018-05-21T11:15:15.608Z,37.90
2018-05-21T11:17:44.133Z,38.00
2018-05-21T11:20:13.338Z,38.00
2018-05-21T11:22:41.733Z,38.00
2018-05-21T11:25:09.841Z,37.90
2018-05-21T11:27:38.487Z,37.90
2018-05-21T11:30:07.621Z,37.90
2018-05-21T11:32:35.549Z,37.80
2018-05-21T11:35:03.415Z,37.70
2018-05-21T11:37:31.281Z,37.60
2018-05-21T11:39:59.148Z,37.30
2018-05-21T11:42:27.015Z,37.60
2018-05-21T11:44:54.880Z,37.30
2018-05-21T11:47:23.617Z,37.30
2018-05-21T11:49:52.808Z,37.90
2018-05-21T11:52:21.125Z,37.80
2018-05-21T11:54:49.357Z,37.50
2018-05-21T11:57:19.471Z,37.70
2018-05-21T11:59:48.607Z,37.50
2018-05-21T12:02:17.761Z,37.80
2018-05-21T12:04:46.090Z,38.00
2018-05-21T12:07:20.959Z,37.70
2018-05-21T12:09:49.547Z,38.10
2018-05-21T12:12:18.166Z,37.90
2018-05-21T12:14:46.753Z,38.10
2018-05-21T12:17:15.328Z,38.20
2018-05-21T12:19:43.876Z,38.30
2018-05-21T12:22:11.696Z,37.60
2018-05-21T12:24:39.580Z,37.60
2018-05-21T12:27:07.549Z,38.00
2018-05-21T12:29:35.416Z,38.20
2018-05-21T12:32:04.034Z,38.10
2018-05-21T12:34:31.969Z,38.30
2018-05-21T12:36:59.935Z,38.20
2018-05-21T12:39:27.802Z,38.30
2018-05-21T12:41:55.771Z,38.40
2018-05-21T12:44:23.639Z,38.30
2018-05-21T12:46:51.632Z,38.20
2018-05-21T12:49:19.573Z,38.10
2018-05-21T12:51:47.542Z,38.30
2018-05-21T12:54:15.408Z,38.40
2018-05-21T12:56:43.571Z,38.40
2018-05-21T12:59:12.553Z,38.50
2018-05-21T13:01:40.381Z,38.40
2018-05-21T13:04:08.245Z,38.20
2018-05-21T13:06:36.072Z,38.30
2018-05-21T13:09:04.321Z,38.20
2018-05-21T13:11:32.144Z,38.10
2018-05-21T13:14:00.226Z,38.10
2018-05-21T13:16:28.623Z,38.30
2018-05-21T13:18:57.401Z,38.50
2018-05-21T13:21:25.819Z,37.90
2018-05-21T13:23:54.683Z,38.00
2018-05-21T13:26:23.628Z,38.50
2018-05-21T13:28:58.704Z,38.00
2018-05-21T13:31:34.340Z,38.20
2018-05-21T13:34:11.226Z,38.20
2018-05-21T13:36:46.765Z,38.20
2018-05-21T13:39:21.852Z,38.20
2018-05-21T13:42:03.894Z,38.30
2018-05-21T13:44:41.870Z,38.10
2018-05-21T13:47:27.209Z,38.20
2018-05-21T13:50:00.558Z,38.00
2018-05-21T13:52:30.034Z,38.10
2018-05-21T13:54:58.221Z,37.90
2018-05-21T13:57:26.527Z,37.70
2018-05-21T13:59:54.679Z,37.60
2018-05-21T14:02:22.859Z,37.40
2018-05-21T14:04:51.023Z,37.10
2018-05-21T14:07:19.240Z,37.00
2018-05-21T14:09:48.303Z,37.60
2018-05-21T14:12:16.475Z,36.90
2018-05-21T14:14:44.769Z,36.80
2018-05-21T14:17:13.248Z,36.80
2018-05-21T14:19:43.846Z,37.40
2018-05-21T14:22:13.042Z,37.30
2018-05-21T14:24:40.991Z,36.80
2018-05-21T14:27:08.856Z,36.60
2018-05-21T14:29:36.852Z,36.90
2018-05-21T14:32:04.794Z,37.00
2018-05-21T14:34:32.864Z,36.80
2018-05-21T14:37:01.874Z,36.80
2018-05-21T14:39:30.644Z,37.80
2018-05-21T14:41:58.955Z,37.00
2018-05-21T14:44:27.245Z,37.40
2018-05-21T14:46:55.607Z,37.20
2018-05-21T14:49:23.986Z,37.10
2018-05-21T14:51:52.065Z,37.20
2018-05-21T14:54:19.891Z,37.30
2018-05-21T14:56:47.696Z,37.40
2018-05-21T14:59:15.622Z,37.30
2018-05-21T15:01:43.490Z,37.60
2018-05-21T15:04:12.112Z,38.00
2018-05-21T15:06:39.888Z,37.30
2018-05-21T15:09:07.678Z,37.10
2018-05-21T15:11:36.018Z,37.30
2018-05-21T15:14:04.381Z,37.50
2018-05-21T15:16:32.557Z,37.40
2018-05-21T15:19:00.856Z,37.20
2018-05-21T15:21:29.203Z,37.00
2018-05-21T15:23:57.151Z,37.00
2018-05-21T15:26:25.024Z,36.50
2018-05-21T15:28:52.956Z,36.90
2018-05-21T15:31:21.615Z,37.30
2018-05-21T15:33:49.541Z,36.50
2018-05-21T15:36:17.405Z,36.40
2018-05-21T15:38:45.315Z,36.20
2018-05-21T15:41:13.240Z,36.50
2018-05-21T15:43:41.148Z,36.30
2018-05-21T15:46:09.072Z,36.60
2018-05-21T15:48:37.116Z,36.10
2018-05-21T15:51:05.017Z,36.40
2018-05-21T15:53:32.978Z,36.20
2018-05-21T15:56:00.845Z,36.10
2018-05-21T15:58:28.814Z,36.50
2018-05-21T16:00:56.685Z,36.70
2018-05-21T16:03:24.648Z,36.50
2018-05-21T16:05:52.592Z,36.40
2018-05-21T16:08:20.484Z,36.70
2018-05-21T16:10:48.391Z,36.30
2018-05-21T16:13:16.323Z,36.40
2018-05-21T16:15:44.185Z,36.20
2018-05-21T16:18:12.156Z,36.00
2018-05-21T16:20:41.473Z,36.30
2018-05-21T16:23:09.421Z,36.80
2018-05-21T16:25:37.291Z,35.70
2018-05-21T16:28:05.257Z,36.00
2018-05-21T16:30:33.055Z,35.70
2018-05-21T16:33:00.873Z,35.40
2018-05-21T16:35:28.799Z,35.40
2018-05-21T16:37:56.721Z,35.80
2018-05-21T16:40:24.588Z,35.30
2018-05-21T16:42:52.492Z,35.60
2018-05-21T16:45:20.388Z,35.20
2018-05-21T16:47:49.094Z,36.20
2018-05-21T16:50:16.973Z,35.20
2018-05-21T16:52:44.839Z,35.20
2018-05-21T16:55:12.705Z,35.40
2018-05-21T16:57:40.571Z,35.30
2018-05-21T17:00:08.567Z,35.20
2018-05-21T17:02:36.508Z,35.30
2018-05-21T17:05:04.296Z,35.20
2018-05-21T17:07:32.184Z,35.30
2018-05-21T17:10:00.120Z,35.30
2018-05-21T17:12:27.973Z,35.40
2018-05-21T17:14:55.840Z,35.40
2018-05-21T17:17:23.646Z,35.40
2018-05-21T17:19:51.468Z,36.10
2018-05-21T17:22:19.270Z,35.50
2018-05-21T17:24:47.136Z,35.70
2018-05-21T17:27:15.068Z,35.40
2018-05-21T17:29:43.036Z,35.20
2018-05-21T17:32:10.904Z,35.60
2018-05-21T17:34:38.871Z,35.60
2018-05-21T17:37:06.737Z,35.20
2018-05-21T17:39:34.604Z,35.20
2018-05-21T17:42:02.571Z,35.70
2018-05-21T17:44:30.541Z,35.60
2018-05-21T17:46:58.407Z,35.70
2018-05-21T17:49:26.326Z,35.50
2018-05-21T17:51:54.240Z,35.60
2018-05-21T17:54:22.312Z,35.20
2018-05-21T17:56:50.383Z,35.20
2018-05-21T17:59:18.289Z,35.30
2018-05-21T18:01:46.218Z,35.80
2018-05-21T18:04:14.121Z,35.40
2018-05-21T18:06:41.987Z,36.00
2018-05-21T18:09:09.800Z,35.40
2018-05-21T18:11:37.683Z,35.60
2018-05-21T18:14:05.609Z,35.90
2018-05-21T18:16:34.337Z,36.90
2018-05-21T18:19:02.245Z,36.10
2018-05-21T18:21:30.934Z,36.50
2018-05-21T18:23:58.857Z,36.80
2018-05-21T18:26:26.713Z,36.40
2018-05-21T18:28:54.594Z,36.70
2018-05-21T18:31:22.460Z,36.80
2018-05-21T18:33:50.425Z,36.60
2018-05-21T18:36:18.290Z,36.50
2018-05-21T18:38:46.259Z,36.60
2018-05-21T18:41:14.127Z,37.10
2018-05-21T18:43:41.992Z,36.90
2018-05-21T18:46:09.857Z,37.00
2018-05-21T18:48:37.724Z,37.10
2018-05-21T18:51:05.592Z,37.40
2018-05-21T18:53:33.456Z,37.20
2018-05-21T18:56:01.270Z,37.10
2018-05-21T18:58:29.189Z,36.70
2018-05-21T19:00:57.055Z,37.00
2018-05-21T19:03:24.923Z,37.70
2018-05-21T19:05:52.787Z,37.60
2018-05-21T19:08:20.654Z,37.40
2018-05-21T19:10:48.465Z,37.70
2018-05-21T19:13:16.386Z,37.60
2018-05-21T19:15:44.252Z,37.10
2018-05-21T19:18:12.630Z,37.40
2018-05-21T19:20:40.599Z,37.40
2018-05-21T19:23:08.465Z,37.40
2018-05-21T19:25:36.268Z,37.50
2018-05-21T19:28:04.199Z,37.50
2018-05-21T19:30:32.063Z,37.30
2018-05-21T19:32:59.931Z,37.10
2018-05-21T19:35:27.796Z,36.90
2018-05-21T19:37:55.577Z,37.10
2018-05-21T19:40:24.192Z,38.00
2018-05-21T19:42:52.032Z,37.30
2018-05-21T19:45:20.488Z,37.30
2018-05-21T19:47:48.280Z,37.60
2018-05-21T19:50:17.077Z,37.50
2018-05-21T19:52:44.857Z,37.70
2018-05-21T19:55:25.504Z,37.50
2018-05-21T19:57:54.319Z,38.50
2018-05-21T20:00:23.194Z,38.60
2018-05-21T20:02:51.015Z,38.10
2018-05-21T20:05:18.985Z,38.40
2018-05-21T20:07:46.864Z,38.50
2018-05-21T20:10:14.818Z,38.80
2018-05-21T20:12:42.685Z,38.60
2018-05-21T20:15:10.652Z,38.90
2018-05-21T20:17:38.521Z,39.00
2018-05-21T20:20:06.489Z,38.90
2018-05-21T20:22:34.355Z,39.00
2018-05-21T20:25:02.270Z,39.00
2018-05-21T20:27:30.087Z,39.10
2018-05-21T20:29:57.997Z,39.10
2018-05-21T20:32:29.668Z,39.10
2018-05-21T20:35:02.906Z,39.80
2018-05-21T20:37:30.703Z,39.60
2018-05-21T20:40:03.182Z,39.20
2018-05-21T20:42:32.600Z,39.40
2018-05-21T20:45:01.944Z,39.40
2018-05-21T20:47:32.372Z,39.70
2018-05-21T20:50:02.622Z,39.50
2018-05-21T20:52:30.824Z,39.60
2018-05-21T20:54:59.654Z,39.40
2018-05-21T20:57:27.584Z,39.60
2018-05-21T20:59:56.716Z,39.80
2018-05-21T21:02:26.810Z,39.90
2018-05-21T21:04:55.069Z,39.50
2018-05-21T21:07:24.991Z,39.90
2018-05-21T21:09:53.304Z,39.70
2018-05-21T21:12:21.431Z,39.70
2018-05-21T21:14:50.298Z,40.00
2018-05-21T21:17:18.669Z,39.70
2018-05-21T21:19:47.758Z,40.00
2018-05-21T21:22:15.831Z,39.70
2018-05-21T21:24:44.768Z,40.10
2018-05-21T21:27:16.311Z,40.10
2018-05-21T21:29:45.309Z,39.80
2018-05-21T21:32:15.507Z,40.10
2018-05-21T21:34:45.091Z,40.00
2018-05-21T21:37:15.200Z,39.90
2018-05-21T21:39:44.661Z,40.00
2018-05-21T21:42:14.441Z,40.50
2018-05-21T21:44:44.109Z,40.20
2018-05-21T21:47:12.873Z,40.40
2018-05-21T21:49:44.094Z,40.40
2018-05-21T21:52:12.454Z,40.40
2018-05-21T21:54:40.720Z,40.10
2018-05-21T21:57:08.876Z,40.00
2018-05-21T21:59:37.043Z,39.90
2018-05-21T22:02:05.354Z,39.90
2018-05-21T22:04:33.638Z,39.90
2018-05-21T22:07:01.801Z,39.70
2018-05-21T22:09:29.974Z,39.70
2018-05-21T22:11:58.161Z,39.70
2018-05-21T22:14:26.826Z,39.70
2018-05-21T22:16:55.162Z,39.70
2018-05-21T22:19:23.318Z,40.00
2018-05-21T22:21:51.652Z,39.80
2018-05-21T22:24:19.827Z,39.90
2018-05-21T22:26:48.210Z,40.00
2018-05-21T22:29:16.482Z,40.00
2018-05-21T22:31:44.765Z,40.70
2018-05-21T22:34:12.890Z,40.50
2018-05-21T22:36:41.190Z,40.20
2018-05-21T22:39:09.350Z,40.00
2018-05-21T22:41:37.523Z,39.60
2018-05-21T22:44:05.689Z,39.10
2018-05-21T22:46:34.110Z,39.50
2018-05-21T22:49:02.337Z,39.50
2018-05-21T22:51:30.960Z,39.50
2018-05-21T22:53:59.145Z,39.50
2018-05-21T22:56:27.529Z,39.50
2018-05-21T22:58:55.794Z,39.50
2018-05-21T23:01:24.091Z,39.50
2018-05-21T23:03:52.448Z,39.50
2018-05-21T23:06:20.740Z,39.40
2018-05-21T23:08:49.199Z,39.50
2018-05-21T23:11:17.760Z,39.50
2018-05-21T23:13:46.277Z,39.50
2018-05-21T23:16:14.645Z,39.40
2018-05-21T23:18:42.920Z,39.30
2018-05-21T23:21:11.126Z,39.30
2018-05-21T23:23:40.075Z,39.60
2018-05-21T23:26:08.363Z,39.30
2018-05-21T23:28:36.491Z,39.10
2018-05-21T23:31:04.812Z,39.10
2018-05-21T23:33:33.081Z,39.10
2018-05-21T23:36:01.306Z,39.00
2018-05-21T23:44:16.136Z,39.10
2018-05-21T23:46:44.925Z,39.00
2018-05-21T23:49:25.444Z,39.20
2018-05-21T23:51:55.631Z,39.20
2018-05-21T23:54:24.304Z,39.00
2018-05-21T23:56:53.680Z,39.20
2018-05-21T23:59:22.300Z,38.90
